createdAt,value
2018-08-19T00:00:45.919Z,42.27
2018-08-19T00:03:14.325Z,42.41
2018-08-19T00:05:42.710Z,42.40
2018-08-19T00:16:47.359Z,42.74
2018-08-19T00:19:15.870Z,43.23
2018-08-19T00:21:44.320Z,42.54
2018-08-19T00:24:12.653Z,43.08
2018-08-19T00:26:40.980Z,43.11
2018-08-19T00:29:09.356Z,43.07
2018-08-19T00:31:38.225Z,42.89
2018-08-19T00:34:06.777Z,43.17
2018-08-19T00:36:36.671Z,43.71
2018-08-19T00:39:08.076Z,43.34
2018-08-19T00:41:36.398Z,43.63
2018-08-19T00:44:04.725Z,43.71
2018-08-19T00:46:33.412Z,43.85
2018-08-19T00:49:02.187Z,43.99
2018-08-19T00:51:30.566Z,44.23
2018-08-19T00:53:59.000Z,44.02
2018-08-19T00:56:27.397Z,44.29
2018-08-19T00:58:55.894Z,43.99
2018-08-19T01:01:32.593Z,44.42
2018-08-19T01:04:01.058Z,44.44
2018-08-19T01:06:29.349Z,44.85
2018-08-19T01:08:57.782Z,44.87
2018-08-19T01:11:35.330Z,44.93
2018-08-19T01:14:09.558Z,45.60
2018-08-19T01:16:37.948Z,45.23
2018-08-19T01:21:56.818Z,45.96
2018-08-19T01:24:26.091Z,45.58
2018-08-19T01:27:12.737Z,45.70
2018-08-19T01:29:44.237Z,45.39
2018-08-19T01:32:22.515Z,45.25
2018-08-19T01:34:50.886Z,46.42
2018-08-19T01:37:25.223Z,46.40
2018-08-19T01:39:53.617Z,45.15
2018-08-19T01:42:21.954Z,45.32
2018-08-19T01:44:50.553Z,45.22
2018-08-19T01:47:18.913Z,45.93
2018-08-19T01:49:47.268Z,45.32
2018-08-19T01:52:15.581Z,45.82
2018-08-19T01:54:43.910Z,45.71
2018-08-19T01:57:13.137Z,45.45
2018-08-19T01:59:41.479Z,45.51
2018-08-19T02:02:10.047Z,46.11
2018-08-19T02:04:56.449Z,46.25
2018-08-19T02:07:25.649Z,45.96
2018-08-19T02:10:02.433Z,45.88
2018-08-19T02:12:35.826Z,46.84
2018-08-19T02:15:04.796Z,45.88
2018-08-19T02:17:33.844Z,46.02
2018-08-19T02:20:02.127Z,45.80
2018-08-19T02:22:30.478Z,46.57
2018-08-19T02:24:58.835Z,46.58
2018-08-19T02:27:27.225Z,46.00
2018-08-19T02:29:55.557Z,46.23
2018-08-19T02:32:23.871Z,45.90
2018-08-19T02:34:52.232Z,46.22
2018-08-19T02:37:20.593Z,46.85
2018-08-19T02:39:49.848Z,46.71
2018-08-19T02:42:25.422Z,46.52
2018-08-19T02:45:00.272Z,46.42
2018-08-19T02:47:28.857Z,46.65
2018-08-19T02:49:57.230Z,46.34
2018-08-19T02:52:28.754Z,46.41
2018-08-19T02:54:58.665Z,46.63
2018-08-19T02:57:27.974Z,46.35
2018-08-19T02:59:56.937Z,46.46
2018-08-19T03:02:26.744Z,46.72
2018-08-19T03:04:55.929Z,46.73
2018-08-19T03:07:28.685Z,46.84
2018-08-19T03:10:02.401Z,46.84
2018-08-19T03:12:30.764Z,46.64
2018-08-19T03:14:59.200Z,47.09
2018-08-19T03:17:28.352Z,47.34
2018-08-19T03:19:57.706Z,47.09
2018-08-19T03:22:26.726Z,47.06
2018-08-19T03:24:55.511Z,46.81
2018-08-19T03:27:23.820Z,47.15
2018-08-19T03:29:54.308Z,46.68
2018-08-19T03:32:23.292Z,47.42
2018-08-19T03:34:52.276Z,47.25
2018-08-19T03:37:20.672Z,47.23
2018-08-19T03:39:49.012Z,46.64
2018-08-19T03:42:17.360Z,47.88
2018-08-19T03:44:45.856Z,46.62
2018-08-19T03:47:18.298Z,46.75
2018-08-19T03:49:46.851Z,47.47
2018-08-19T03:52:15.867Z,47.62
2018-08-19T03:54:45.130Z,47.91
2018-08-19T03:57:13.902Z,48.06
2018-08-19T03:59:44.864Z,47.29
2018-08-19T04:02:13.243Z,47.36
2018-08-19T04:04:41.546Z,47.66
2018-08-19T04:07:09.881Z,48.25
2018-08-19T04:09:38.292Z,48.28
2018-08-19T04:12:12.986Z,48.34
2018-08-19T04:14:41.313Z,48.52
2018-08-19T04:17:13.063Z,47.94
2018-08-19T04:19:41.632Z,47.62
2018-08-19T04:22:09.970Z,47.65
2018-08-19T04:24:38.345Z,48.96
2018-08-19T04:27:08.108Z,47.79
2018-08-19T04:29:37.074Z,46.97
2018-08-19T04:32:06.348Z,47.23
2018-08-19T04:34:34.728Z,46.55
2018-08-19T04:37:03.083Z,47.02
2018-08-19T04:39:32.329Z,47.35
2018-08-19T04:42:00.663Z,47.90
2018-08-19T04:44:29.454Z,47.33
2018-08-19T04:46:57.929Z,47.53
2018-08-19T04:49:26.301Z,47.48
2018-08-19T04:51:54.656Z,47.57
2018-08-19T05:00:05.729Z,46.79
2018-08-19T05:05:24.675Z,46.93
2018-08-19T05:07:53.061Z,46.78
2018-08-19T05:21:43.987Z,46.05
2018-08-19T05:27:06.797Z,45.09
2018-08-19T05:29:35.225Z,44.48
2018-08-19T05:34:54.078Z,44.12
2018-08-19T05:37:45.033Z,45.09
2018-08-19T05:40:13.382Z,44.61
2018-08-19T05:42:42.282Z,45.00
2018-08-19T05:45:10.638Z,44.75
2018-08-19T05:47:39.014Z,44.34
2018-08-19T05:50:07.333Z,43.81
2018-08-19T05:52:35.700Z,43.84
2018-08-19T05:55:11.478Z,43.71
2018-08-19T06:03:42.265Z,44.77
2018-08-19T06:06:10.762Z,43.37
2018-08-19T06:08:39.098Z,42.93
2018-08-19T06:31:14.908Z,41.81
2018-08-19T06:42:03.420Z,40.74
2018-08-19T06:56:11.841Z,38.92
2018-08-19T07:10:07.421Z,36.95
2018-08-19T07:15:26.224Z,36.24
2018-08-19T07:29:17.793Z,35.36
2018-08-19T07:37:27.374Z,32.69
2018-08-19T07:39:55.670Z,33.04
2018-08-19T07:45:15.217Z,32.50
2018-08-19T07:53:19.267Z,31.18
2018-08-19T08:01:30.053Z,30.36
2018-08-19T08:06:48.885Z,29.83
2018-08-19T08:09:17.900Z,29.20
2018-08-19T08:11:46.283Z,29.32
2018-08-19T08:14:14.625Z,29.35
2018-08-19T08:16:48.278Z,29.86
2018-08-19T08:19:16.672Z,30.20
2018-08-19T08:21:45.995Z,29.46
2018-08-19T08:24:14.401Z,28.35
2018-08-19T08:26:49.250Z,29.34
2018-08-19T08:29:38.240Z,28.51
2018-08-19T08:32:06.606Z,29.16
2018-08-19T08:37:26.570Z,27.57
2018-08-19T08:48:27.506Z,27.33
2018-08-19T08:50:56.117Z,28.37
2018-08-19T08:53:28.525Z,27.26
2018-08-19T08:55:56.945Z,27.42
2018-08-19T08:58:25.785Z,26.49
2018-08-19T09:00:54.160Z,24.73
2018-08-19T09:03:22.517Z,24.65
2018-08-19T09:08:43.017Z,24.99
2018-08-19T09:11:11.547Z,25.25
2018-08-19T09:13:39.918Z,26.10
2018-08-19T09:16:08.293Z,24.37
2018-08-19T09:18:36.618Z,24.44
2018-08-19T09:21:05.111Z,24.57
2018-08-19T09:23:33.708Z,25.53
2018-08-19T09:28:52.471Z,24.23
2018-08-19T09:34:45.144Z,22.41
2018-08-19T09:37:13.505Z,22.35
2018-08-19T09:39:41.821Z,22.02
2018-08-19T09:42:12.964Z,21.81
2018-08-19T09:44:43.228Z,21.83
2018-08-19T09:50:02.616Z,22.44
2018-08-19T10:01:10.312Z,21.77
2018-08-19T10:03:52.866Z,22.85
2018-08-19T10:06:21.241Z,21.65
2018-08-19T10:08:49.566Z,21.93
2018-08-19T10:11:18.071Z,21.99
2018-08-19T10:13:48.874Z,20.82
2018-08-19T10:16:17.568Z,21.13
2018-08-19T10:18:45.984Z,21.31
2018-08-19T10:21:18.313Z,22.21
2018-08-19T10:23:46.780Z,21.79
2018-08-19T10:26:15.898Z,22.12
2018-08-19T10:34:26.970Z,19.71
2018-08-19T10:36:55.788Z,20.92
2018-08-19T10:39:24.128Z,21.83
2018-08-19T10:44:43.514Z,20.50
2018-08-19T10:47:11.817Z,18.96
2018-08-19T10:49:40.160Z,20.37
2018-08-19T10:52:13.095Z,20.52
2018-08-19T10:54:41.415Z,20.72
2018-08-19T10:57:17.433Z,21.38
2018-08-19T10:59:45.992Z,21.01
2018-08-19T11:02:14.367Z,20.84
2018-08-19T11:04:43.470Z,19.87
2018-08-19T11:07:11.897Z,19.82
2018-08-19T11:09:51.508Z,19.75
2018-08-19T11:12:19.872Z,19.54
2018-08-19T11:14:48.247Z,20.34
2018-08-19T11:17:16.767Z,20.54
2018-08-19T11:19:46.717Z,20.31
2018-08-19T11:22:15.064Z,19.78
2018-08-19T11:24:43.563Z,20.46
2018-08-19T11:27:12.018Z,19.33
2018-08-19T11:29:41.619Z,19.90
2018-08-19T11:32:11.129Z,18.53
2018-08-19T11:34:39.582Z,20.08
2018-08-19T11:37:07.984Z,20.53
2018-08-19T11:39:41.589Z,20.35
2018-08-19T11:42:09.955Z,19.57
2018-08-19T11:44:38.365Z,19.76
2018-08-19T11:47:06.816Z,18.15
2018-08-19T11:49:35.148Z,17.43
2018-08-19T11:52:04.704Z,16.40
2018-08-19T11:54:33.892Z,17.09
2018-08-19T11:57:06.667Z,16.08
2018-08-19T12:05:18.515Z,15.86
2018-08-19T12:07:51.985Z,13.86
2018-08-19T12:10:20.917Z,13.96
2018-08-19T12:12:50.665Z,11.94
2018-08-19T12:21:00.157Z,11.31
2018-08-19T12:26:23.934Z,10.45
2018-08-19T12:28:52.286Z,9.65
2018-08-19T12:42:49.054Z,9.38
2018-08-19T12:45:17.372Z,9.29
2018-08-19T12:47:45.760Z,8.99
2018-08-19T12:58:46.073Z,8.00
2018-08-19T13:01:14.374Z,7.19
2018-08-19T13:03:42.718Z,7.51
2018-08-19T13:09:02.679Z,7.65
2018-08-19T13:17:15.561Z,6.83
2018-08-19T13:19:48.081Z,7.70
2018-08-19T13:22:17.606Z,8.40
2018-08-19T13:39:00.185Z,6.75
2018-08-19T13:41:28.558Z,6.21
2018-08-19T13:43:57.177Z,5.90
2018-08-19T13:46:25.541Z,5.55
2018-08-19T13:48:53.936Z,5.20
2018-08-19T13:51:22.253Z,6.28
2018-08-19T13:53:50.563Z,5.52
2018-08-19T13:56:19.109Z,6.44
2018-08-19T13:58:47.506Z,7.81
2018-08-19T14:01:28.302Z,8.43
2018-08-19T14:03:56.675Z,7.04
2018-08-19T14:06:25.020Z,6.38
2018-08-19T14:08:53.377Z,5.99
2018-08-19T14:11:21.679Z,5.82
2018-08-19T14:13:51.217Z,6.18
2018-08-19T14:16:19.577Z,7.57
2018-08-19T14:18:47.993Z,6.99
2018-08-19T14:21:16.439Z,7.68
2018-08-19T14:23:44.755Z,8.19
2018-08-19T14:26:13.083Z,7.39
2018-08-19T14:28:41.416Z,6.83
2018-08-19T14:31:09.745Z,7.26
2018-08-19T14:33:38.031Z,8.38
2018-08-19T14:36:06.567Z,7.99
2018-08-19T14:38:34.848Z,6.72
2018-08-19T14:41:03.194Z,8.18
2018-08-19T14:43:31.629Z,6.76
2018-08-19T14:46:00.002Z,5.70
2018-08-19T14:48:28.340Z,7.87
2018-08-19T14:50:56.695Z,7.63
2018-08-19T14:53:25.108Z,7.72
2018-08-19T14:56:04.635Z,6.24
2018-08-19T14:58:32.982Z,6.60
2018-08-19T15:01:01.275Z,7.41
2018-08-19T15:03:29.645Z,7.51
2018-08-19T15:06:03.170Z,7.16
2018-08-19T15:08:32.617Z,7.19
2018-08-19T15:11:04.928Z,9.17
2018-08-19T15:13:33.628Z,7.27
2018-08-19T15:16:01.930Z,8.42
2018-08-19T15:18:30.207Z,7.36
2018-08-19T15:23:50.468Z,6.80
2018-08-19T15:37:53.382Z,8.85
2018-08-19T15:40:33.484Z,7.76
2018-08-19T15:45:53.612Z,8.24
2018-08-19T15:48:22.113Z,7.55
2018-08-19T15:51:07.097Z,7.46
2018-08-19T15:56:27.850Z,8.26
2018-08-19T15:58:56.222Z,7.39
2018-08-19T16:04:50.118Z,7.97
2018-08-19T16:10:08.627Z,7.25
2018-08-19T16:15:28.901Z,8.40
2018-08-19T16:17:58.198Z,9.20
2018-08-19T16:20:26.556Z,9.48
2018-08-19T16:22:59.717Z,9.52
2018-08-19T16:28:19.042Z,10.01
2018-08-19T16:30:47.380Z,8.65
2018-08-19T16:33:15.707Z,9.13
2018-08-19T16:38:34.960Z,9.01
2018-08-19T16:41:03.319Z,8.91
2018-08-19T16:43:31.672Z,10.39
2018-08-19T16:57:23.376Z,10.00
2018-08-19T17:02:46.463Z,9.60
2018-08-19T17:05:30.504Z,9.24
2018-08-19T17:16:59.800Z,11.37
2018-08-19T17:22:18.744Z,12.79
2018-08-19T17:24:47.036Z,14.09
2018-08-19T17:27:15.357Z,14.89
2018-08-19T17:29:43.781Z,16.05
2018-08-19T17:32:12.292Z,17.18
2018-08-19T17:34:41.551Z,17.65
2018-08-19T17:37:10.271Z,18.33
2018-08-19T17:39:38.733Z,18.84
2018-08-19T17:42:07.037Z,19.29
2018-08-19T17:44:35.436Z,18.88
2018-08-19T17:47:03.733Z,20.76
2018-08-19T17:49:32.360Z,20.26
2018-08-19T17:52:01.392Z,20.67
2018-08-19T17:54:30.942Z,20.70
2018-08-19T17:57:00.544Z,20.71
2018-08-19T17:59:29.030Z,22.09
2018-08-19T18:01:57.856Z,22.17
2018-08-19T18:04:48.957Z,22.30
2018-08-19T18:07:23.721Z,22.00
2018-08-19T18:09:56.570Z,22.78
2018-08-19T18:12:25.138Z,23.79
2018-08-19T18:14:53.550Z,23.17
2018-08-19T18:17:21.838Z,23.87
2018-08-19T18:19:50.162Z,23.79
2018-08-19T18:22:21.037Z,24.06
2018-08-19T18:24:53.197Z,24.59
2018-08-19T18:27:21.515Z,24.88
2018-08-19T18:29:49.865Z,25.90
2018-08-19T18:32:18.245Z,26.04
2018-08-19T18:34:46.618Z,24.93
2018-08-19T18:37:14.979Z,26.28
2018-08-19T18:39:43.848Z,25.95
2018-08-19T18:42:14.708Z,26.37
2018-08-19T18:44:49.783Z,26.57
2018-08-19T18:47:18.139Z,26.25
2018-08-19T18:49:46.569Z,27.60
2018-08-19T18:52:17.886Z,27.34
2018-08-19T18:54:46.187Z,27.51
2018-08-19T18:57:14.561Z,27.72
2018-08-19T18:59:43.848Z,27.41
2018-08-19T19:02:12.274Z,28.17
2018-08-19T19:04:41.209Z,28.27
2018-08-19T19:07:09.865Z,27.92
2018-08-19T19:09:48.486Z,28.32
2018-08-19T19:12:21.231Z,28.64
2018-08-19T19:14:49.537Z,28.49
2018-08-19T19:17:19.747Z,29.08
2018-08-19T19:19:49.554Z,28.71
2018-08-19T19:22:18.291Z,29.31
2018-08-19T19:24:46.637Z,29.16
2018-08-19T19:27:15.083Z,29.18
2018-08-19T19:29:44.916Z,29.29
2018-08-19T19:40:45.234Z,29.68
2018-08-19T19:46:04.637Z,29.58
2018-08-19T19:48:33.008Z,29.30
2018-08-19T19:51:01.662Z,29.78
2018-08-19T19:53:30.087Z,29.36
2018-08-19T19:56:02.565Z,29.31
2018-08-19T19:58:30.875Z,29.65
2018-08-19T20:00:59.264Z,29.91
2018-08-19T20:03:31.204Z,29.68
2018-08-19T20:06:06.834Z,29.60
2018-08-19T20:08:35.198Z,29.24
2018-08-19T20:11:03.584Z,29.01
2018-08-19T20:13:31.975Z,29.79
2018-08-19T20:16:00.308Z,28.61
2018-08-19T20:18:29.331Z,29.39
2018-08-19T20:20:57.666Z,29.27
2018-08-19T20:26:17.231Z,29.24
2018-08-19T20:28:45.568Z,29.54
2018-08-19T20:31:13.961Z,29.58
2018-08-19T20:33:43.010Z,29.98
2018-08-19T20:36:11.433Z,29.70
2018-08-19T20:47:11.628Z,29.09
2018-08-19T20:49:40.237Z,29.40
2018-08-19T20:52:22.309Z,30.13
2018-08-19T20:57:41.160Z,29.80
2018-08-19T21:00:10.047Z,30.26
2018-08-19T21:02:39.324Z,30.35
2018-08-19T21:05:07.853Z,30.60
2018-08-19T21:07:36.317Z,30.44
2018-08-19T21:10:05.106Z,30.96
2018-08-19T21:12:33.404Z,30.36
2018-08-19T21:15:01.789Z,30.36
2018-08-19T21:17:32.218Z,30.28
2018-08-19T21:20:00.585Z,30.68
2018-08-19T21:22:29.075Z,30.66
2018-08-19T21:24:57.392Z,31.20
2018-08-19T21:27:26.027Z,31.36
2018-08-19T21:29:54.541Z,30.63
2018-08-19T21:32:23.441Z,30.97
2018-08-19T21:34:51.855Z,31.30
2018-08-19T21:37:27.335Z,31.05
2018-08-19T21:39:55.727Z,31.08
2018-08-19T21:42:24.872Z,31.42
2018-08-19T21:44:53.676Z,31.62
2018-08-19T21:47:21.996Z,31.56
2018-08-19T21:49:54.481Z,32.48
2018-08-19T21:52:22.865Z,32.10
2018-08-19T21:54:51.213Z,31.78
2018-08-19T21:57:19.559Z,31.33
2018-08-19T21:59:47.945Z,31.38
2018-08-19T22:05:07.919Z,31.35
2018-08-19T22:07:36.278Z,31.68
2018-08-19T22:10:05.806Z,31.47
2018-08-19T22:12:35.620Z,32.01
2018-08-19T22:15:04.430Z,31.63
2018-08-19T22:17:32.784Z,32.48
2018-08-19T22:20:01.270Z,32.66
2018-08-19T22:22:29.653Z,32.58
2018-08-19T22:25:00.382Z,33.69
2018-08-19T22:27:28.760Z,32.73
2018-08-19T22:29:57.085Z,33.06
2018-08-19T22:32:25.443Z,32.61
2018-08-19T22:34:53.873Z,32.71
2018-08-19T22:37:22.440Z,33.01
2018-08-19T22:39:50.873Z,33.42
2018-08-19T22:42:19.406Z,33.12
2018-08-19T22:44:47.723Z,33.90
2018-08-19T22:47:16.090Z,32.95
2018-08-19T22:49:44.457Z,33.42
2018-08-19T22:52:18.500Z,33.44
2018-08-19T22:54:47.204Z,33.42
2018-08-19T22:57:15.691Z,32.96
2018-08-19T22:59:44.081Z,33.05
2018-08-19T23:02:14.710Z,33.93
2018-08-19T23:04:43.673Z,35.33
2018-08-19T23:07:12.007Z,34.46
2018-08-19T23:09:40.361Z,35.00
2018-08-19T23:12:08.813Z,35.00
2018-08-19T23:14:48.496Z,35.08
2018-08-19T23:17:16.858Z,35.82
2018-08-19T23:19:45.395Z,36.02
2018-08-19T23:22:13.762Z,36.86
2018-08-19T23:24:42.342Z,37.37
2018-08-19T23:27:10.721Z,37.36
2018-08-19T23:29:39.131Z,37.76
2018-08-19T23:32:07.519Z,37.71
2018-08-19T23:34:35.861Z,38.04
2018-08-19T23:37:04.217Z,38.21
2018-08-19T23:39:32.664Z,38.58
2018-08-19T23:42:00.981Z,38.33
2018-08-19T23:44:29.325Z,38.63
2018-08-19T23:46:57.645Z,38.82
2018-08-19T23:49:26.012Z,39.23
2018-08-19T23:51:54.407Z,39.27
2018-08-19T23:54:22.769Z,39.15
2018-08-19T23:56:51.065Z,39.26
2018-08-19T23:59:26.577Z,39.85
